Time;durP1;ratioP1;P1;durP2;ratioP2;P2;SDS_P1;SDS_P2;PMS_P1;PMS_P2;Temp;Humidity;BMP_temperature;BMP_pressure;BME280_temperature;BME280_humidity;BME280_pressure;Samples;Min_cycle;Max_cycle;Signal;HPM_P1;HPM_P2
2023/06/03 00:00:05;;;;;;;6.70;3.10;;;;;;;22.22;45.59;98390.38;5032109;28;20095;-76
2023/06/03 00:02:30;;;;;;;5.68;2.92;;;;;;;22.19;45.60;98389.97;5030851;28;20033;-76
2023/06/03 00:04:56;;;;;;;5.32;3.22;;;;;;;22.15;45.89;98394.03;5031070;28;20029;-76
2023/06/03 00:07:21;;;;;;;4.15;2.78;;;;;;;22.15;45.59;98407.31;5030893;28;20036;-76
2023/06/03 00:09:47;;;;;;;4.07;2.72;;;;;;;22.12;46.01;98408.53;5030897;28;20037;-76
2023/06/03 00:12:12;;;;;;;4.10;2.83;;;;;;;22.11;45.88;98412.22;5031902;28;20443;-76
2023/06/03 00:14:38;;;;;;;5.47;2.60;;;;;;;22.08;45.93;98409.16;5031913;28;20030;-76
2023/06/03 00:17:04;;;;;;;3.63;2.33;;;;;;;22.03;45.84;98405.22;5031905;28;20060;-76
2023/06/03 00:19:30;;;;;;;3.45;2.83;;;;;;;22.01;46.21;98403.78;5031964;28;20088;-76
2023/06/03 00:21:55;;;;;;;3.80;2.80;;;;;;;21.99;46.36;98403.97;5030978;28;20477;-76
2023/06/03 00:24:22;;;;;;;8.80;3.20;;;;;;;21.98;46.36;98404.19;5031926;28;20029;-76
2023/06/03 00:26:49;;;;;;;10.25;2.70;;;;;;;21.93;46.42;98398.66;5030457;28;20053;-76
2023/06/03 00:29:14;;;;;;;4.18;2.65;;;;;;;21.95;46.67;98401.91;5030711;28;20500;-76
2023/06/03 00:31:40;;;;;;;5.40;2.95;;;;;;;21.94;46.59;98408.28;5031987;28;20037;-76
2023/06/03 00:34:05;;;;;;;5.38;2.70;;;;;;;21.92;46.68;98407.63;5031694;28;20029;-76
2023/06/03 00:36:31;;;;;;;4.88;2.20;;;;;;;21.91;46.71;98411.31;5030704;28;20065;-76
2023/06/03 00:38:56;;;;;;;4.50;3.00;;;;;;;21.91;46.46;98403.34;5030000;28;20128;-76
2023/06/03 00:41:22;;;;;;;5.88;3.00;;;;;;;21.89;47.05;98408.06;5031738;28;20483;-76
2023/06/03 00:43:47;;;;;;;5.18;2.78;;;;;;;21.84;46.66;98401.47;5031729;28;20037;-75
2023/06/03 00:46:13;;;;;;;6.05;2.67;;;;;;;21.81;46.86;98393.91;5031487;28;20473;-76
2023/06/03 00:48:38;;;;;;;4.38;2.58;;;;;;;21.83;46.54;98399.03;5030384;28;20026;-79
2023/06/03 00:51:05;;;;;;;4.75;2.95;;;;;;;21.78;46.58;98396.97;5030531;28;20076;-80
2023/06/03 00:53:30;;;;;;;4.03;2.78;;;;;;;21.79;46.45;98395.94;5014376;28;20029;-80
2023/06/03 00:55:56;;;;;;;3.88;2.38;;;;;;;21.75;46.75;98385.91;5031504;28;20037;-80
2023/06/03 00:58:21;;;;;;;4.43;2.70;;;;;;;21.75;46.53;98393.88;5032193;28;20450;-81
2023/06/03 01:00:47;;;;;;;3.65;2.50;;;;;;;21.73;46.76;98401.22;5033988;28;20070;-80
2023/06/03 01:03:14;;;;;;;8.60;2.90;;;;;;;21.68;46.70;98389.34;5035185;28;20037;-80
2023/06/03 01:05:41;;;;;;;6.60;2.65;;;;;;;21.66;46.29;98388.75;5035229;28;20026;-80
2023/06/03 01:08:26;;;;;;;5.50;2.80;;;;;;;21.65;46.59;98386.28;5017569;28;20033;-80
2023/06/03 01:10:55;;;;;;;5.70;2.70;;;;;;;21.64;46.88;98387.28;5034161;28;20426;-80
2023/06/03 01:13:26;;;;;;;5.28;2.80;;;;;;;21.65;46.79;98391.59;5034795;28;20076;-81
2023/06/03 01:15:53;;;;;;;5.35;2.90;;;;;;;21.56;47.04;98385.63;5017764;28;20443;-80
2023/06/03 01:18:19;;;;;;;8.48;3.75;;;;;;;21.59;46.75;98395.84;5018059;28;20479;-81
2023/06/03 01:20:45;;;;;;;4.80;3.38;;;;;;;21.57;46.98;98392.56;5017395;28;20551;-80
2023/06/03 01:23:14;;;;;;;6.60;5.03;;;;;;;21.56;46.99;98396.25;5001207;28;20057;-80
2023/06/03 01:25:42;;;;;;;;;;;;;;;21.56;46.90;98396.25;5035391;28;20034;-80
2023/06/03 01:28:07;;;;;;;;;;;;;;;21.54;46.96;98400.09;5033999;28;20007;-80
2023/06/03 01:30:33;;;;;;;7.50;5.82;;;;;;;21.49;47.39;98403.34;5033623;28;19964;-80
2023/06/03 01:32:59;;;;;;;7.43;5.32;;;;;;;21.47;47.53;98402.69;5017018;28;20033;-80
2023/06/03 01:35:24;;;;;;;11.18;6.10;;;;;;;21.48;47.50;98399.88;5016964;28;20033;-80
2023/06/03 01:37:50;;;;;;;8.93;6.35;;;;;;;21.46;47.64;98393.09;5017419;28;20467;-80
2023/06/03 01:40:15;;;;;;;8.30;6.13;;;;;;;21.45;47.29;98399.41;5000731;28;20037;-81
2023/06/03 01:42:41;;;;;;;10.55;6.40;;;;;;;21.42;47.59;98392.66;5033780;28;20098;-80
2023/06/03 01:45:07;;;;;;;9.00;6.28;;;;;;;21.43;47.51;98389.00;5033354;28;20412;-80
2023/06/03 01:47:34;;;;;;;10.52;6.55;;;;;;;21.42;47.67;98390.00;5033204;28;20037;-80
2023/06/03 01:49:59;;;;;;;9.57;6.65;;;;;;;21.42;47.42;98387.34;5033140;28;20048;-80
2023/06/03 01:52:26;;;;;;;8.80;6.10;;;;;;;21.42;47.70;98384.69;5034335;28;20065;-80
2023/06/03 01:54:51;;;;;;;8.30;6.32;;;;;;;21.38;47.35;98378.16;5034274;28;20025;-80
2023/06/03 01:57:18;;;;;;;11.18;7.13;;;;;;;21.39;47.15;98377.09;5016328;28;20033;-80
2023/06/03 01:59:43;;;;;;;10.25;7.30;;;;;;;21.37;47.55;98370.38;5034033;28;20528;-80
2023/06/03 02:02:09;;;;;;;10.25;7.55;;;;;;;21.35;47.58;98369.72;5034077;28;20037;-80
2023/06/03 02:04:34;;;;;;;15.52;8.15;;;;;;;21.32;47.62;98371.75;5033955;28;20034;-80
2023/06/03 02:07:00;;;;;;;13.13;8.82;;;;;;;21.27;47.52;98368.88;5034315;28;20036;-79
2023/06/03 02:09:28;;;;;;;11.82;8.93;;;;;;;21.25;47.96;98362.97;5016226;28;20416;-80
2023/06/03 02:11:55;;;;;;;11.68;9.15;;;;;;;21.27;48.00;98370.72;5016731;28;20037;-79
2023/06/03 02:14:20;;;;;;;12.10;9.02;;;;;;;21.28;47.65;98377.66;5034050;28;20033;-80
2023/06/03 02:16:46;;;;;;;15.65;9.55;;;;;;;21.24;47.94;98374.59;5032923;28;20077;-80
2023/06/03 02:19:16;;;;;;;15.27;10.32;;;;;;;21.18;47.53;98361.28;5033715;28;20030;-79
2023/06/03 02:21:42;;;;;;;12.93;10.20;;;;;;;21.19;47.70;98369.03;5033679;28;20036;-80
2023/06/03 02:24:08;;;;;;;13.65;9.50;;;;;;;21.21;47.86;98374.97;5015887;28;20119;-80
2023/06/03 02:26:34;;;;;;;12.90;9.32;;;;;;;21.17;47.68;98356.97;5033613;28;20088;-79
2023/06/03 02:29:00;;;;;;;13.00;9.18;;;;;;;21.17;47.86;98367.59;5032592;28;20029;-80
2023/06/03 02:31:25;;;;;;;12.43;8.95;;;;;;;21.20;47.85;98368.00;5033442;28;20116;-80
2023/06/03 02:33:51;;;;;;;12.20;8.80;;;;;;;21.21;48.01;98368.84;5033334;28;20525;-79
2023/06/03 02:36:18;;;;;;;13.00;9.40;;;;;;;21.18;48.18;98358.63;5033358;28;20068;-80
2023/06/03 02:38:44;;;;;;;12.00;9.13;;;;;;;21.28;48.08;98364.38;4999656;28;20553;-80
2023/06/03 02:41:10;;;;;;;12.43;8.82;;;;;;;21.21;48.05;98356.38;5015840;28;20464;-80
2023/06/03 02:43:35;;;;;;;13.40;8.85;;;;;;;21.32;48.00;98368.31;5032469;28;20068;-79
2023/06/03 02:46:01;;;;;;;11.60;8.07;;;;;;;21.37;47.76;98365.06;5032016;28;20566;-78
2023/06/03 02:48:27;;;;;;;10.48;7.93;;;;;;;21.39;47.44;98363.84;5033013;28;20444;-78
2023/06/03 02:50:52;;;;;;;11.25;7.70;;;;;;;21.41;47.30;98359.16;5032955;28;20041;-80
2023/06/03 02:53:18;;;;;;;10.13;7.22;;;;;;;21.41;47.10;98353.84;5033096;28;20029;-81
2023/06/03 02:55:44;;;;;;;11.05;7.22;;;;;;;21.41;46.94;98353.84;5033004;28;20087;-80
2023/06/03 02:58:12;;;;;;;8.48;6.82;;;;;;;21.48;46.93;98356.53;5015643;28;20056;-80
2023/06/03 03:00:38;;;;;;;8.15;6.35;;;;;;;21.50;46.71;98350.03;5032889;28;20404;-80
2023/06/03 03:03:04;;;;;;;10.35;6.85;;;;;;;21.62;46.91;98352.16;5031597;28;20038;-80
2023/06/03 03:05:30;;;;;;;8.68;6.00;;;;;;;21.63;46.71;98351.13;5033123;28;20405;-80
2023/06/03 03:07:58;;;;;;;10.40;6.00;;;;;;;21.67;46.83;98349.72;5032829;28;20025;-80
2023/06/03 03:10:25;;;;;;;8.73;5.47;;;;;;;21.68;46.54;98349.50;5032884;28;20030;-80
2023/06/03 03:12:50;;;;;;;11.05;5.75;;;;;;;21.74;46.35;98345.22;5015687;28;20045;-80
2023/06/03 03:15:16;;;;;;;7.20;5.47;;;;;;;21.79;46.50;98348.13;5032776;28;20031;-80
2023/06/03 03:17:41;;;;;;;7.82;5.38;;;;;;;21.90;45.88;98341.44;5014939;28;20037;-80
2023/06/03 03:20:07;;;;;;;9.30;5.75;;;;;;;22.07;45.81;98339.22;5032646;28;20033;-80
2023/06/03 03:22:33;;;;;;;7.03;5.53;;;;;;;22.31;45.16;98339.69;5030880;28;20083;-80
2023/06/03 03:24:59;;;;;;;11.35;7.47;;;;;;;22.52;44.61;98344.84;5031570;28;20063;-80
2023/06/03 03:27:25;;;;;;;11.27;8.88;;;;;;;22.81;44.25;98349.97;5032293;28;20488;-80
2023/06/03 03:29:53;;;;;;;14.40;9.93;;;;;;;23.00;43.76;98346.44;5032472;28;20559;-81
2023/06/03 03:32:19;;;;;;;16.42;8.40;;;;;;;23.38;42.49;98355.63;5014990;28;20496;-80
2023/06/03 03:34:51;;;;;;;11.05;8.30;;;;;;;23.46;42.40;98355.41;5032403;28;20033;-80
2023/06/03 03:37:16;;;;;;;13.55;8.77;;;;;;;23.23;43.10;98355.84;5031446;28;20033;-80
2023/06/03 03:39:42;;;;;;;10.65;7.80;;;;;;;23.17;42.93;98360.19;5031415;28;20515;-80
2023/06/03 03:42:08;;;;;;;9.18;7.25;;;;;;;23.10;43.10;98359.38;5032352;28;20034;-80
2023/06/03 03:44:33;;;;;;;10.38;7.40;;;;;;;23.11;43.33;98364.47;5031197;28;20036;-80
2023/06/03 03:47:00;;;;;;;11.85;7.13;;;;;;;23.09;43.90;98361.22;5015210;28;20037;-80
2023/06/03 03:49:31;;;;;;;9.50;7.20;;;;;;;23.09;43.42;98365.72;4998900;28;20053;-80
2023/06/03 03:51:57;;;;;;;9.15;6.88;;;;;;;23.06;43.76;98368.78;5032380;28;20033;-80
2023/06/03 03:54:23;;;;;;;11.68;6.57;;;;;;;23.08;43.86;98367.56;5044251;28;20194;-80
2023/06/03 03:56:58;;;;;;;7.78;5.75;;;;;;;23.08;43.92;98372.88;5050794;28;20047;-80
2023/06/03 03:59:25;;;;;;;8.70;5.47;;;;;;;23.19;43.42;98381.28;5051162;28;20135;-81
2023/06/03 04:01:51;;;;;;;12.63;6.07;;;;;;;23.33;42.94;98380.22;5034417;28;20033;-75
2023/06/03 04:04:32;;;;;;;14.07;5.30;;;;;;;23.55;42.60;98377.31;5051993;28;20500;-75
2023/06/03 04:06:58;;;;;;;9.20;5.30;;;;;;;23.73;42.21;98373.97;5050981;28;20041;-76
2023/06/03 04:09:23;;;;;;;7.65;4.95;;;;;;;24.00;41.58;98374.69;5051998;28;20040;-76
2023/06/03 04:11:49;;;;;;;6.30;4.75;;;;;;;24.85;39.79;98374.34;5050633;28;20033;-76
2023/06/03 04:14:15;;;;;;;7.95;5.10;;;;;;;24.83;39.71;98379.09;5050819;28;20377;-76
2023/06/03 04:16:46;;;;;;;6.63;4.22;;;;;;;24.77;39.98;98376.50;5034208;28;20029;-76
2023/06/03 04:19:17;;;;;;;8.95;4.60;;;;;;;24.74;39.62;98375.88;5051907;28;20025;-75
2023/06/03 04:21:43;;;;;;;6.60;4.07;;;;;;;24.70;40.02;98376.53;5050713;28;20036;-75
2023/06/03 04:24:08;;;;;;;10.30;4.50;;;;;;;24.73;39.92;98376.94;5050126;28;20423;-75
2023/06/03 04:26:36;;;;;;;6.50;4.80;;;;;;;24.78;40.39;98378.09;5051660;28;20057;-75
2023/06/03 04:29:02;;;;;;;7.63;4.10;;;;;;;24.81;40.29;98385.69;5051779;28;20090;-75
2023/06/03 04:31:28;;;;;;;7.82;4.10;;;;;;;24.93;40.13;98395.44;5034151;28;20029;-75
2023/06/03 04:33:53;;;;;;;6.28;4.22;;;;;;;25.15;38.78;98394.22;5055063;28;20082;-75
2023/06/03 04:36:18;;;;;;;7.07;4.10;;;;;;;25.32;38.76;98406.00;5054321;28;20112;-75
2023/06/03 04:38:45;;;;;;;9.95;4.70;;;;;;;25.46;38.63;98402.16;5055432;28;20029;-75
2023/06/03 04:41:11;;;;;;;7.93;3.90;;;;;;;25.70;37.63;98402.31;5038349;28;20025;-75
2023/06/03 04:43:43;;;;;;;9.90;4.40;;;;;;;26.27;36.55;98401.22;5037897;28;20025;-75
2023/06/03 04:46:09;;;;;;;7.75;3.97;;;;;;;27.04;35.13;98408.50;5055231;28;20059;-75
2023/06/03 04:48:36;;;;;;;6.85;4.00;;;;;;;27.74;33.81;98412.22;5054061;28;20108;-75
2023/06/03 04:51:06;;;;;;;7.47;3.88;;;;;;;28.51;32.61;98411.00;5053486;28;20519;-75
2023/06/03 04:53:32;;;;;;;14.38;4.03;;;;;;;29.20;31.11;98410.03;5053960;28;20033;-75
2023/06/03 04:55:57;;;;;;;10.70;3.45;;;;;;;29.53;31.12;98402.97;5054873;28;20063;-75
2023/06/03 04:58:24;;;;;;;10.32;3.80;;;;;;;29.82;31.14;98409.00;5037192;28;20537;-75
2023/06/03 05:00:49;;;;;;;7.65;3.25;;;;;;;30.21;30.45;98406.22;5055078;28;20044;-76
2023/06/03 05:03:16;;;;;;;13.68;3.40;;;;;;;30.74;30.08;98402.94;5037261;28;20032;-77
2023/06/03 05:05:41;;;;;;;10.50;3.53;;;;;;;30.46;30.53;98405.69;5053583;28;20124;-76
2023/06/03 05:08:08;;;;;;;8.20;3.40;;;;;;;30.57;30.26;98411.16;5053442;28;20465;-76
2023/06/03 05:10:34;;;;;;;8.73;3.28;;;;;;;30.29;30.78;98413.03;5036955;28;20033;-76
2023/06/03 05:12:59;;;;;;;11.80;3.40;;;;;;;30.91;29.72;98408.22;5053547;28;20024;-76
2023/06/03 05:15:25;;;;;;;10.73;3.63;;;;;;;30.72;30.05;98407.78;5053246;28;20068;-75
2023/06/03 05:17:52;;;;;;;9.52;2.97;;;;;;;30.94;29.25;98411.19;5053356;28;20033;-76
2023/06/03 05:20:17;;;;;;;6.32;2.92;;;;;;;30.83;29.74;98417.56;5054617;28;20447;-76
2023/06/03 05:22:42;;;;;;;7.22;3.08;;;;;;;31.14;28.96;98417.84;5053160;28;20048;-76
2023/06/03 05:25:08;;;;;;;8.05;3.00;;;;;;;31.44;28.57;98424.47;5054543;28;20040;-76
2023/06/03 05:27:34;;;;;;;13.23;3.35;;;;;;;31.23;28.59;98426.25;5054178;28;20072;-76
2023/06/03 05:29:59;;;;;;;9.00;3.45;;;;;;;30.99;29.20;98423.94;5053473;28;20040;-77
2023/06/03 05:32:25;;;;;;;10.25;2.72;;;;;;;30.73;29.16;98429.09;5054449;28;20414;-76
2023/06/03 05:34:50;;;;;;;5.75;2.78;;;;;;;30.53;29.61;98428.91;5053258;28;20021;-76
2023/06/03 05:37:17;;;;;;;9.50;3.10;;;;;;;30.21;30.08;98426.94;5023563;28;20094;-75
2023/06/03 05:39:42;;;;;;;10.30;3.17;;;;;;;30.23;30.04;98424.81;5041891;28;20477;-76
2023/06/03 05:42:08;;;;;;;6.75;3.40;;;;;;;30.19;30.23;98432.56;5042728;28;20091;-76
2023/06/03 05:44:33;;;;;;;10.95;3.58;;;;;;;29.98;29.90;98426.13;5033166;28;20021;-76
2023/06/03 05:46:59;;;;;;;9.02;3.08;;;;;;;29.88;30.40;98426.03;5033756;28;20480;-76
2023/06/03 05:49:25;;;;;;;10.20;3.25;;;;;;;29.75;30.65;98433.38;5042612;28;20091;-75
2023/06/03 05:51:50;;;;;;;8.73;3.63;;;;;;;30.23;30.32;98435.56;5042806;28;20064;-76
2023/06/03 05:54:15;;;;;;;5.38;3.22;;;;;;;30.04;30.49;98437.78;5037457;28;20037;-77
2023/06/03 05:56:41;;;;;;;9.75;3.55;;;;;;;30.06;30.56;98435.63;5025667;28;20475;-76
2023/06/03 05:59:10;;;;;;;8.23;3.15;;;;;;;30.55;29.94;98434.84;5030503;28;20068;-73
2023/06/03 06:01:35;;;;;;;8.38;3.53;;;;;;;30.91;30.80;98437.84;5043642;28;20044;-70
2023/06/03 06:04:01;;;;;;;9.25;3.17;;;;;;;30.99;29.59;98440.09;5052448;28;20067;-73
2023/06/03 06:06:26;;;;;;;18.33;3.88;;;;;;;30.97;28.94;98434.97;5052496;28;20024;-74
2023/06/03 06:08:52;;;;;;;12.25;3.80;;;;;;;31.12;28.63;98436.16;5051903;28;20444;-75
2023/06/03 06:11:18;;;;;;;20.45;3.88;;;;;;;31.34;27.51;98428.75;5035271;28;20550;-76
2023/06/03 06:13:43;;;;;;;9.77;3.33;;;;;;;31.65;27.99;98438.94;5052540;28;20040;-70
2023/06/03 06:16:09;;;;;;;7.15;3.50;;;;;;;31.96;27.17;98447.16;5035567;28;20094;-69
2023/06/03 06:18:35;;;;;;;11.60;3.80;;;;;;;31.89;26.58;98450.09;5035508;28;20423;-69
2023/06/03 06:21:00;;;;;;;11.07;4.00;;;;;;;32.04;26.18;98454.72;5021429;28;20034;-73
2023/06/03 06:23:26;;;;;;;12.45;4.50;;;;;;;32.38;27.30;98449.75;5031243;28;20099;-70
2023/06/03 06:25:52;;;;;;;14.55;4.20;;;;;;;32.36;26.47;98451.91;5034446;28;20025;-71
2023/06/03 06:28:18;;;;;;;16.00;4.75;;;;;;;32.72;26.78;98454.69;5017982;28;20021;-70
2023/06/03 06:30:44;;;;;;;17.35;4.40;;;;;;;32.86;26.49;98460.34;5034859;28;20094;-71
2023/06/03 06:33:11;;;;;;;10.43;3.90;;;;;;;33.22;25.97;98451.47;5035429;28;20032;-72
2023/06/03 06:35:37;;;;;;;18.35;3.88;;;;;;;33.47;25.62;98445.19;5035755;28;20045;-70
2023/06/03 06:38:03;;;;;;;19.77;3.88;;;;;;;33.67;26.43;98457.88;5052290;28;20039;-75
2023/06/03 06:40:33;;;;;;;17.70;3.83;;;;;;;33.82;25.56;98452.41;5051816;28;20072;-73
2023/06/03 06:42:58;;;;;;;10.88;3.45;;;;;;;34.13;25.12;98456.88;5052358;28;20078;-69
2023/06/03 06:45:26;;;;;;;11.75;3.42;;;;;;;34.34;25.20;98454.91;5053020;28;20025;-69
2023/06/03 06:48:12;;;;;;;10.05;3.45;;;;;;;34.54;25.52;98459.41;5051707;28;20051;-72
2023/06/03 06:50:47;;;;;;;10.48;3.75;;;;;;;34.68;25.04;98459.56;5034250;28;20041;-70
2023/06/03 06:53:14;;;;;;;17.58;3.78;;;;;;;34.44;25.59;98460.25;5051687;28;20028;-72
2023/06/03 06:55:48;;;;;;;21.05;3.80;;;;;;;34.10;25.95;98469.09;5034522;28;20538;-68
2023/06/03 06:58:14;;;;;;;29.88;4.07;;;;;;;33.68;26.46;98463.00;5051005;28;20033;-68
2023/06/03 07:00:39;;;;;;;10.07;3.15;;;;;;;33.41;27.64;98470.63;5034301;28;20507;-72
2023/06/03 07:03:08;;;;;;;16.48;3.17;;;;;;;34.11;26.68;98469.88;5034926;28;20215;-69
2023/06/03 07:05:34;;;;;;;19.40;3.58;;;;;;;34.33;26.50;98467.66;5051651;28;20060;-72
2023/06/03 07:07:59;;;;;;;17.52;3.20;;;;;;;34.51;26.38;98471.59;5018660;28;20055;-72
2023/06/03 07:10:25;;;;;;;8.07;3.17;;;;;;;34.93;25.73;98469.41;5052795;28;20037;-72
2023/06/03 07:12:55;;;;;;;7.22;3.10;;;;;;;35.19;25.11;98475.44;5052330;28;20025;-73
2023/06/03 07:15:21;;;;;;;9.98;3.30;;;;;;;35.82;24.00;98471.03;5035980;28;20025;-72
2023/06/03 07:17:53;;;;;;;12.85;3.17;;;;;;;36.21;23.84;98473.53;5018869;28;20043;-72
2023/06/03 07:20:23;;;;;;;9.95;2.90;;;;;;;36.34;23.65;98480.19;5051273;28;20040;-76
2023/06/03 07:22:48;;;;;;;11.23;2.70;;;;;;;36.15;23.97;98474.72;5034982;28;20025;-75
2023/06/03 07:25:37;;;;;;;12.00;2.92;;;;;;;35.59;24.83;98475.34;5018780;28;20119;-90
2023/06/03 07:28:04;;;;;;;10.68;2.80;;;;;;;35.19;25.57;98477.31;5036232;28;20470;-76
2023/06/03 07:30:29;;;;;;;10.98;2.63;;;;;;;34.72;26.22;98482.31;5050932;28;20033;-76
2023/06/03 07:32:58;;;;;;;16.33;3.40;;;;;;;34.26;27.51;98483.41;5034616;28;20041;-80
2023/06/03 07:35:24;;;;;;;19.90;3.92;;;;;;;33.87;28.29;98486.78;5018620;28;20053;-77
2023/06/03 07:37:49;;;;;;;6.25;2.92;;;;;;;33.44;27.83;98483.63;5034236;28;20527;-78
2023/06/03 07:40:15;;;;;;;9.18;3.28;;;;;;;32.96;27.80;98487.41;5051175;28;20522;-76
2023/06/03 07:42:43;;;;;;;9.98;3.15;;;;;;;32.57;28.64;98482.47;5034744;28;20524;-76
2023/06/03 07:45:09;;;;;;;7.97;2.85;;;;;;;32.27;29.67;98489.41;5050875;28;20476;-75
2023/06/03 07:47:34;;;;;;;8.98;2.88;;;;;;;32.00;30.58;98478.75;5034370;28;20041;-76
2023/06/03 07:50:02;;;;;;;7.85;3.10;;;;;;;32.17;29.91;98494.78;5034365;28;20480;-77
2023/06/03 07:52:31;;;;;;;8.88;2.88;;;;;;;32.93;29.47;98487.94;5034547;28;20025;-78
2023/06/03 07:54:56;;;;;;;7.28;2.95;;;;;;;33.44;28.85;98495.25;5034732;28;20021;-76
2023/06/03 07:57:22;;;;;;;10.43;3.33;;;;;;;33.59;28.95;98489.00;5050694;28;20029;-76
2023/06/03 07:59:52;;;;;;;4.70;2.80;;;;;;;33.61;28.71;98489.53;5050835;28;20036;-78
2023/06/03 08:02:18;;;;;;;14.52;3.40;;;;;;;34.16;29.01;98494.22;5017906;28;20028;-81
2023/06/03 08:04:44;;;;;;;7.60;3.20;;;;;;;34.49;28.38;98494.63;5050728;28;20044;-73
2023/06/03 08:07:09;;;;;;;9.52;3.75;;;;;;;34.41;30.48;98499.56;5052079;28;20044;-74
2023/06/03 08:09:36;;;;;;;12.70;4.78;;;;;;;34.59;28.58;98500.81;5021816;28;20029;-77
2023/06/03 08:12:06;;;;;;;12.47;5.17;;;;;;;34.79;28.94;98504.50;5038131;28;20492;-76
2023/06/03 08:14:33;;;;;;;9.60;4.95;;;;;;;35.09;28.52;98506.19;5021599;28;20612;-77
2023/06/03 08:17:03;;;;;;;8.95;5.00;;;;;;;35.35;28.07;98503.28;5055783;28;20469;-79
2023/06/03 08:19:28;;;;;;;12.43;4.88;;;;;;;35.30;28.71;98509.56;5038391;28;20508;-78
2023/06/03 08:21:54;;;;;;;10.80;5.07;;;;;;;35.04;28.76;98503.50;5055959;28;20032;-82
2023/06/03 08:24:19;;;;;;;9.77;4.70;;;;;;;35.01;28.46;98504.06;5038612;28;20037;-82
2023/06/03 08:26:46;;;;;;;10.65;4.60;;;;;;;34.89;28.93;98509.84;5022253;28;20053;-84
2023/06/03 08:29:12;;;;;;;8.55;4.40;;;;;;;34.74;28.80;98504.50;5038515;28;20037;-86
2023/06/03 08:31:38;;;;;;;7.75;4.15;;;;;;;34.55;28.44;98501.66;5045288;28;20480;-86
2023/06/03 08:34:04;;;;;;;8.68;4.30;;;;;;;34.45;29.17;98509.84;5015883;28;20025;-86
2023/06/03 08:36:30;;;;;;;8.82;4.90;;;;;;;34.30;29.27;98516.97;5033239;28;20126;-87
2023/06/03 08:38:55;;;;;;;7.68;4.72;;;;;;;34.19;28.96;98505.34;5035645;28;20096;-88
2023/06/03 08:41:26;;;;;;;14.52;4.90;;;;;;;34.11;29.26;98511.34;5017023;28;20045;-85
2023/06/03 08:44:01;;;;;;;7.63;4.10;;;;;;;34.03;29.53;98512.72;5047267;28;20507;-77
2023/06/03 08:46:35;;;;;;;5.95;4.43;;;;;;;33.99;29.41;98503.53;5072325;28;20036;-83
2023/06/03 08:49:07;;;;;;;7.32;4.50;;;;;;;34.07;29.47;98505.66;5072896;28;20060;-82
2023/06/03 08:51:39;;;;;;;8.90;4.63;;;;;;;34.15;29.25;98506.16;5056425;28;20041;-78
2023/06/03 08:54:13;;;;;;;8.25;4.07;;;;;;;34.13;28.73;98513.75;5056732;28;20090;-82
2023/06/03 08:56:42;;;;;;;6.43;4.10;;;;;;;34.11;29.20;98511.34;5055644;28;20402;-84
2023/06/03 08:59:08;;;;;;;8.82;4.20;;;;;;;34.11;29.35;98513.22;5055833;28;20070;-84
2023/06/03 09:01:35;;;;;;;11.23;4.05;;;;;;;34.06;29.40;98512.16;5055831;28;20111;-84
2023/06/03 09:04:02;;;;;;;6.25;3.95;;;;;;;34.03;29.31;98514.59;5035764;28;20393;-82
2023/06/03 09:06:28;;;;;;;6.10;3.92;;;;;;;33.94;29.41;98511.66;5038619;28;20044;-88
2023/06/03 09:08:53;;;;;;;5.88;4.40;;;;;;;33.86;29.37;98515.75;5036811;28;20412;-88
2023/06/03 09:11:19;;;;;;;8.50;3.83;;;;;;;33.75;29.88;98510.63;5052676;28;20408;-87
2023/06/03 09:13:46;;;;;;;8.80;4.20;;;;;;;33.59;29.79;98507.94;5036834;28;20045;-83
2023/06/03 09:16:13;;;;;;;;;;;;;;;33.43;30.02;98517.97;5053489;28;20473;-81
2023/06/03 09:18:39;;;;;;;8.98;5.90;;;;;;;33.23;30.05;98513.38;5052349;28;20433;-88
2023/06/03 09:21:08;;;;;;;6.30;4.30;;;;;;;33.10;30.38;98524.69;5037871;28;20115;-88
2023/06/03 09:23:33;;;;;;;8.30;4.30;;;;;;;32.96;30.89;98519.03;5053806;28;20037;-85
2023/06/03 09:26:00;;;;;;;9.45;5.18;;;;;;;32.82;31.03;98524.97;5053396;28;20028;-87
2023/06/03 09:28:26;;;;;;;5.37;3.87;;;;;;;32.71;30.94;98527.94;5052584;28;20128;-88
2023/06/03 09:30:52;;;;;;;5.95;4.28;;;;;;;32.55;31.38;98519.75;5039488;28;20029;-88
2023/06/03 09:33:17;;;;;;;7.18;4.75;;;;;;;32.44;31.73;98532.41;5053554;28;20496;-77
2023/06/03 09:35:43;;;;;;;9.48;4.80;;;;;;;32.32;31.80;98536.41;5053437;28;20033;-83
2023/06/03 09:38:08;;;;;;;6.90;4.57;;;;;;;32.18;31.76;98528.00;5019527;28;20029;-79
2023/06/03 09:40:34;;;;;;;7.28;4.57;;;;;;;32.09;31.93;98528.50;5036133;28;20508;-86
2023/06/03 09:43:00;;;;;;;7.03;5.60;;;;;;;32.00;32.02;98523.84;5019276;28;20052;-80
2023/06/03 09:45:32;;;;;;;7.85;5.53;;;;;;;31.94;31.86;98523.00;5053197;28;20057;-81
2023/06/03 09:47:59;;;;;;;7.68;4.97;;;;;;;31.84;32.20;98522.94;5031291;28;20040;-81
2023/06/03 09:50:27;;;;;;;6.95;4.85;;;;;;;31.75;32.84;98530.72;4998814;28;20570;-80
2023/06/03 09:52:52;;;;;;;;;;;;;;;31.66;33.08;98526.88;5031626;28;20040;-83
2023/06/03 09:55:18;;;;;;;8.48;5.13;;;;;;;31.56;32.68;98524.94;5050982;28;19913;-82
2023/06/03 09:58:06;;;;;;;6.40;4.60;;;;;;;31.44;33.12;98522.41;5051203;28;20029;-84
2023/06/03 10:00:48;;;;;;;8.68;4.35;;;;;;;31.42;33.47;98529.91;5019071;28;20052;-79
2023/06/03 10:03:14;;;;;;;8.18;4.97;;;;;;;31.39;33.36;98531.25;5050583;28;20052;-80
2023/06/03 10:05:41;;;;;;;13.73;4.90;;;;;;;31.38;33.48;98529.63;5017933;28;20076;-85
2023/06/03 10:08:06;;;;;;;7.78;4.53;;;;;;;31.42;33.63;98548.00;5032417;28;20528;-79
2023/06/03 10:10:33;;;;;;;8.00;5.20;;;;;;;31.46;33.03;98554.50;5032426;28;20108;-82
2023/06/03 10:13:16;;;;;;;7.13;5.38;;;;;;;31.51;32.99;98544.56;5016776;28;20021;-79
2023/06/03 10:15:42;;;;;;;12.13;7.50;;;;;;;31.58;33.01;98544.38;5033042;28;20037;-77
2023/06/03 10:18:10;;;;;;;13.32;7.10;;;;;;;31.62;33.39;98540.06;5032514;28;20087;-79
2023/06/03 10:20:38;;;;;;;9.10;6.55;;;;;;;31.70;32.82;98553.06;5030084;28;20824;-79
2023/06/03 10:23:04;;;;;;;12.40;7.07;;;;;;;31.79;32.63;98552.59;4997407;28;20022;-79
2023/06/03 10:25:35;;;;;;;8.43;7.50;;;;;;;31.84;32.18;98549.94;4997728;28;20500;-80
2023/06/03 10:28:01;;;;;;;12.57;10.27;;;;;;;31.88;32.23;98553.72;4997819;28;20541;-77
2023/06/03 10:30:27;;;;;;;14.05;10.93;;;;;;;31.90;32.25;98555.09;5013305;28;20036;-79
2023/06/03 10:32:53;;;;;;;13.70;9.27;;;;;;;31.88;32.15;98549.16;5030398;28;20056;-78
2023/06/03 10:35:19;;;;;;;11.88;9.52;;;;;;;31.89;32.32;98556.16;4999309;28;20480;-78
2023/06/03 10:37:47;;;;;;;12.23;8.73;;;;;;;31.86;32.26;98551.28;5031816;28;20049;-77
2023/06/03 10:40:12;;;;;;;10.57;9.15;;;;;;;31.78;32.32;98557.19;5032259;28;20037;-78
2023/06/03 10:42:38;;;;;;;16.90;12.40;;;;;;;31.73;32.39;98557.16;5015581;28;20038;-78
2023/06/03 10:45:05;;;;;;;13.43;11.13;;;;;;;31.63;32.60;98546.28;5015443;28;20036;-78
2023/06/03 10:47:30;;;;;;;14.27;10.88;;;;;;;31.56;33.15;98558.13;5032078;28;20057;-77
2023/06/03 10:50:02;;;;;;;16.15;11.18;;;;;;;31.48;32.93;98547.75;5015255;28;20473;-78
2023/06/03 10:52:57;;;;;;;14.23;10.98;;;;;;;31.37;33.36;98549.59;4999217;28;20427;-78
2023/06/03 10:55:34;;;;;;;18.15;11.07;;;;;;;31.30;33.27;98549.00;5031602;28;20040;-76
2023/06/03 10:58:19;;;;;;;14.45;10.57;;;;;;;31.20;33.47;98552.41;5031757;28;20025;-78
2023/06/03 11:01:03;;;;;;;12.75;10.20;;;;;;;31.14;33.36;98550.75;5000109;28;20042;-78
2023/06/03 11:03:31;;;;;;;16.33;10.30;;;;;;;31.09;33.89;98552.56;5036993;28;20404;-78
2023/06/03 11:06:21;;;;;;;12.75;9.82;;;;;;;31.08;33.67;98559.03;5018837;28;20041;-77
2023/06/03 11:08:57;;;;;;;11.23;10.07;;;;;;;30.99;33.68;98550.59;5052964;28;20055;-76
2023/06/03 11:11:41;;;;;;;11.80;9.75;;;;;;;30.99;33.86;98558.69;5035223;28;20120;-77
2023/06/03 11:14:07;;;;;;;12.95;11.07;;;;;;;30.98;33.82;98552.50;5052413;28;20059;-78
2023/06/03 11:16:57;;;;;;;11.45;10.05;;;;;;;30.96;33.74;98553.78;5018143;28;20107;-78
2023/06/03 11:19:36;;;;;;;13.38;10.05;;;;;;;30.93;33.97;98557.81;5052738;28;20033;-82
2023/06/03 11:22:04;;;;;;;12.65;9.63;;;;;;;30.92;34.33;98561.56;5034630;28;20139;-77
2023/06/03 11:24:41;;;;;;;11.55;9.88;;;;;;;30.93;33.82;98562.34;5014206;28;20024;-77
2023/06/03 11:27:10;;;;;;;;;;;;;;;30.96;34.15;98553.78;5032120;28;20065;-77
2023/06/03 11:29:56;;;;;;;11.77;9.32;;;;;;;30.94;34.21;98553.22;5030906;28;19920;-78